Online Now
Guests 2
Members   0

24/7 FSX Server
IP: 71.135.74.145
@ KORD until 10/30/20



Information and tools for flight simulation use only - NOT for real avaition

File Flight Plans Here

KORD 291912Z 02025G32KT 10SM SCT021 BKN025 OVC035 07/02 A2990 RMK AO2 PK WND 02032/1908 T00720017 $KORD 291732Z 2918/3024 02022G33KT P6SM SCT018 OVC021 FM292000 01016G27KT P6SM VCSH SCT018 OVC025 FM300100 35012G20KT P6SM BKN025 FM300500 34009KT P6SM SCT025 BKN120 FM302000 05008KT P6SM SCT025 SCT150
Aviation Digital Data Service (ADDS)



Other FSX servers